Oosterdam — PBKH — position and weather

sailwx.info

Track history (hours):
 
Tides and Currents Weather Stations Pressure Air Temp Water Temp Dewpoint Dewpoint Depression Visibility Wind Speed Wind Dir Waves Ship Positions

Oosterdam

Operator: Holland America Line

Last reported at 2018-Aug-15 12:29 UTC. Time now 2018-Aug-15 12:37 UTC.
Position N 40°50' E 014°16'.

MMSI: 245417000.

Date/timePositionNaut miles runAvg speedWind from/ knotsBaromVisibWave heightAir tempDewpointWater temp
2018-Aug-15 12:29N 40°50' E 014°16'4 7.4
2018-Aug-15 12:00N 40°48' E 014°12'4205.3 020 / 51011.910.8 24.517.527.8
2018-Aug-15 11:58N 40°50' E 014°16'0 0.0
2018-Aug-15 11:28N 40°50' E 014°16'0 0.0
2018-Aug-15 10:58N 40°50' E 014°16'0 0.0
2018-Aug-15 10:29N 40°50' E 014°16'0 0.0
2018-Aug-15 09:58N 40°50' E 014°16'0 0.0
2018-Aug-15 09:28N 40°50' E 014°16'0 0.0
2018-Aug-15 08:58N 40°50' E 014°16'0 0.0
2018-Aug-15 08:26N 40°50' E 014°16'0 0.0
2018-Aug-15 07:58N 40°50' E 014°16'0 0.0
2018-Aug-15 07:29N 40°50' E 014°16'0 0.0
2018-Aug-15 06:59N 40°50' E 014°16'0 0.0
2018-Aug-15 06:28N 40°50' E 014°16'0 0.0
2018-Aug-15 05:58N 40°50' E 014°16'0 0.3
2018-Aug-15 05:30N 40°50' E 014°16'1 3.0
2018-Aug-15 05:01N 40°49' E 014°17'510.8
2018-Aug-15 04:31N 40°45' E 014°13'612.3
2018-Aug-15 04:00N 40°40' E 014°08'612.1
2018-Aug-15 03:31N 40°35' E 014°04'612.3
2018-Aug-15 03:00N 40°29' E 014°03'5365.5
2018-Aug-15 03:00N 40°24' E 014°00'1 2.8 240 / 221011.910.8 22.819.427.8
2018-Aug-15 02:30N 40°23' E 014°01'612.7
2018-Aug-15 02:01N 40°17' E 013°59'612.5
2018-Aug-15 01:30N 40°10' E 013°57'612.8
2018-Aug-15 01:01N 40°04' E 013°56'612.2
2018-Aug-15 00:29N 39°58' E 013°54'1122.3
2018-Aug-15 00:00N 39°48' E 013°48'5611.7 040 / 241010.010.8 25.220.529.0
2018-Aug-14 19:12N 38°53' E 013°37'312.9
2018-Aug-14 19:00N 38°50' E 013°36'613.0
2018-Aug-14 18:30N 38°44' E 013°35'613.1
2018-Aug-14 18:00N 38°37' E 013°34'713.1
2018-Aug-14 17:31N 38°31' E 013°33'612.2
2018-Aug-14 17:00N 38°25' E 013°31'198.6
2018-Aug-14 17:00N 38°24' E 013°30'510.0 080 / 81011.010.8 28.022.030.1
2018-Aug-14 16:30N 38°19' E 013°29'612.6
2018-Aug-14 16:01N 38°13' E 013°27'612.0
2018-Aug-14 15:31N 38°08' E 013°24'2 3.5
2018-Aug-14 15:00N 38°08' E 013°22'0 0.0
2018-Aug-14 14:29N 38°08' E 013°22'0 0.0
2018-Aug-14 13:59N 38°08' E 013°22'0 0.0
2018-Aug-14 13:29N 38°08' E 013°22'0 0.0
2018-Aug-14 12:59N 38°08' E 013°22'0 0.0
2018-Aug-14 12:29N 38°08' E 013°22'3 7.2
2018-Aug-14 12:00N 38°06' E 013°18'3233.1 070 / 81011.010.8 32.521.7
2018-Aug-14 11:59N 38°08' E 013°22'0 0.0
2018-Aug-14 11:29N 38°08' E 013°22'0 0.0
2018-Aug-14 10:59N 38°08' E 013°22'0 0.0
2018-Aug-14 10:29N 38°08' E 013°22'0 0.0
2018-Aug-14 09:59N 38°08' E 013°22'0 0.0
2018-Aug-14 09:29N 38°08' E 013°22'0 0.0
2018-Aug-14 08:59N 38°08' E 013°22'0 0.0
2018-Aug-14 08:29N 38°08' E 013°22'0 0.0
2018-Aug-14 07:59N 38°08' E 013°22'0 0.0
2018-Aug-14 07:29N 38°08' E 013°22'0 0.0
2018-Aug-14 06:59N 38°08' E 013°22'0 0.0
2018-Aug-14 06:29N 38°08' E 013°22'0 0.0
2018-Aug-14 05:59N 38°08' E 013°22'0 0.2
2018-Aug-14 05:30N 38°08' E 013°22'2 3.1
2018-Aug-14 05:00N 38°08' E 013°24'611.3
2018-Aug-14 04:30N 38°14' E 013°25'816.5
2018-Aug-14 04:00N 38°17' E 013°16'1019.5
2018-Aug-14 03:30N 38°17' E 013°03'1019.6
2018-Aug-14 03:00N 38°17' E 012°51'1019.1
2018-Aug-14 02:30N 38°16' E 012°39'918.9
2018-Aug-14 02:00N 38°14' E 012°27'2929.0
2018-Aug-14 01:00N 38°00' E 011°54'1713.3 010 / 181016.010.8 30.421.527.2
2018-Aug-13 23:42N 37°46' E 012°06'420.9
2018-Aug-13 23:30N 37°43' E 012°10'1020.8
2018-Aug-13 23:00N 37°35' E 012°19'4113.1
2018-Aug-13 19:55N 37°05' E 012°53'819.3
2018-Aug-13 19:30N 36°59' E 012°60'1019.2
2018-Aug-13 19:00N 36°52' E 013°08'1015.8
2018-Aug-13 18:23N 36°45' E 013°16'615.0
2018-Aug-13 18:00N 36°41' E 013°21'814.6
2018-Aug-13 17:26N 36°35' E 013°28'1813.9
2018-Aug-13 16:08N 36°22' E 013°44'213.8
2018-Aug-13 15:59N 36°21' E 013°46'714.2
2018-Aug-13 15:30N 36°16' E 013°52'714.4
2018-Aug-13 15:00N 36°11' E 013°58'713.9
2018-Aug-13 14:30N 36°06' E 014°04'714.5
2018-Aug-13 14:00N 36°01' E 014°10'7 0.8
2018-Aug-13 05:12N 36°01' E 014°19'210.8
2018-Aug-13 05:00N 36°02' E 014°22'612.0
2018-Aug-13 04:31N 36°03' E 014°29'611.7
2018-Aug-13 04:00N 35°59' E 014°35'510.7
2018-Aug-13 03:30N 35°54' E 014°31'1 0.1
2018-Aug-12 12:00N 35°54' E 014°30'118 7.9 010 / 181016.010.8 30.421.527.2
2018-Aug-11 21:00N 37°42' E 015°30'1718.7 010 / 181016.010.8 26.823.328.2
2018-Aug-11 20:06N 37°58' E 015°33'325.6
2018-Aug-11 20:00N 38°00' E 015°30'422.5 020 / 221016.010.8 26.523.228.0
2018-Aug-11 19:48N 38°03' E 015°34'415.1
2018-Aug-11 19:30N 38°07' E 015°35'4 8.7
2018-Aug-11 19:00N 38°12' E 015°34'6 0.9
2018-Aug-11 12:00N 38°06' E 015°30'6 1.0 360 / 151017.010.8 30.520.7
2018-Aug-11 05:53N 38°12' E 015°33'1 1.9
2018-Aug-11 05:28N 38°12' E 015°34'3 7.1
2018-Aug-11 05:00N 38°10' E 015°37'611.9
2018-Aug-11 04:30N 38°04' E 015°35'612.0
2018-Aug-11 03:59N 37°58' E 015°37'612.0
2018-Aug-11 03:30N 37°53' E 015°40'710.7
2018-Aug-11 02:53N 37°49' E 015°46'411.5
2018-Aug-11 02:30N 37°47' E 015°52'711.5
2018-Aug-11 01:56N 37°45' E 015°60'511.7
2018-Aug-11 01:30N 37°44' E 016°06'611.7
2018-Aug-11 01:00N 37°42' E 016°13'15511.9
2018-Aug-10 12:00N 36°54' E 019°18'24712.3 010 / 121015.010.8 29.217.129.4
2018-Aug-09 16:00N 35°41' E 024°10'5496.5
2018-Aug-09 16:00N 35°36' E 024°12'4 7.8 020 / 161012.010.8 27.021.728.6
2018-Aug-09 15:30N 35°37' E 024°16'612.1
2018-Aug-09 15:00N 35°31' E 024°16'3282.9
2018-Aug-09 15:00N 35°30' E 024°12'6 0.6 340 / 171012.010.8 26.721.228.8
2018-Aug-09 04:36N 35°30' E 024°04'0 0.4
2018-Aug-09 04:30N 35°30' E 024°04'6 6.3
2018-Aug-09 03:37N 35°29' E 024°11'112.9
2018-Aug-09 03:30N 35°30' E 024°13'613.2
2018-Aug-09 03:00N 35°36' E 024°16'17315.7
2018-Aug-08 16:00N 37°12' E 021°18'1212.0 280 / 101012.010.8 28.421.229.2
2018-Aug-08 15:00N 37°24' E 021°18'66 4.1 280 / 191012.010.8 28.022.728.4
2018-Aug-07 23:00N 38°24' E 020°42'5911.8 300 / 61015.010.8 25.122.028.0
2018-Aug-07 18:00N 39°18' E 020°12'61 4.0 050 / 31012.010.8 26.123.827.9
2018-Aug-07 03:00N 40°06' E 019°24'15415.4 140 / 71014.010.8 25.323.427.0
2018-Aug-06 17:00N 42°30' E 018°12'9 8.8 330 / 51013.010.8 27.123.829.2
2018-Aug-06 16:00N 42°30' E 018°00'90 4.3 240 / 41013.010.8 27.623.428.1
2018-Aug-05 19:00N 43°12' E 016°12'   120 / 11013.010.8 26.024.828.0
Track history (hours):
 
Tides and Currents Weather Stations Pressure Air Temp Water Temp Dewpoint Dewpoint Depression Visibility Wind Speed Wind Dir Waves Ship Positions

Oosterdam

Operator: Holland America Line

Last reported at 2018-Aug-15 12:29 UTC. Time now 2018-Aug-15 12:37 UTC.
Position N 40°50' E 014°16'.

MMSI: 245417000.

Date/timePositionNaut miles runAvg speedWind from/ knotsBaromVisibWave heightAir tempDewpointWater temp
2018-Aug-15 12:29N 40°50' E 014°16'4 7.4
2018-Aug-15 12:00N 40°48' E 014°12'4205.3 020 / 51011.910.8 24.517.527.8
2018-Aug-15 11:58N 40°50' E 014°16'0 0.0
2018-Aug-15 11:28N 40°50' E 014°16'0 0.0
2018-Aug-15 10:58N 40°50' E 014°16'0 0.0
2018-Aug-15 10:29N 40°50' E 014°16'0 0.0
2018-Aug-15 09:58N 40°50' E 014°16'0 0.0
2018-Aug-15 09:28N 40°50' E 014°16'0 0.0
2018-Aug-15 08:58N 40°50' E 014°16'0 0.0
2018-Aug-15 08:26N 40°50' E 014°16'0 0.0
2018-Aug-15 07:58N 40°50' E 014°16'0 0.0
2018-Aug-15 07:29N 40°50' E 014°16'0 0.0
2018-Aug-15 06:59N 40°50' E 014°16'0 0.0
2018-Aug-15 06:28N 40°50' E 014°16'0 0.0
2018-Aug-15 05:58N 40°50' E 014°16'0 0.3
2018-Aug-15 05:30N 40°50' E 014°16'1 3.0
2018-Aug-15 05:01N 40°49' E 014°17'510.8
2018-Aug-15 04:31N 40°45' E 014°13'612.3
2018-Aug-15 04:00N 40°40' E 014°08'612.1
2018-Aug-15 03:31N 40°35' E 014°04'612.3
2018-Aug-15 03:00N 40°29' E 014°03'5365.5
2018-Aug-15 03:00N 40°24' E 014°00'1 2.8 240 / 221011.910.8 22.819.427.8
2018-Aug-15 02:30N 40°23' E 014°01'612.7
2018-Aug-15 02:01N 40°17' E 013°59'612.5
2018-Aug-15 01:30N 40°10' E 013°57'612.8
2018-Aug-15 01:01N 40°04' E 013°56'612.2
2018-Aug-15 00:29N 39°58' E 013°54'1122.3
2018-Aug-15 00:00N 39°48' E 013°48'5611.7 040 / 241010.010.8 25.220.529.0
2018-Aug-14 19:12N 38°53' E 013°37'312.9
2018-Aug-14 19:00N 38°50' E 013°36'613.0
2018-Aug-14 18:30N 38°44' E 013°35'613.1
2018-Aug-14 18:00N 38°37' E 013°34'713.1
2018-Aug-14 17:31N 38°31' E 013°33'612.2
2018-Aug-14 17:00N 38°25' E 013°31'198.6
2018-Aug-14 17:00N 38°24' E 013°30'510.0 080 / 81011.010.8 28.022.030.1
2018-Aug-14 16:30N 38°19' E 013°29'612.6
2018-Aug-14 16:01N 38°13' E 013°27'612.0
2018-Aug-14 15:31N 38°08' E 013°24'2 3.5
2018-Aug-14 15:00N 38°08' E 013°22'0 0.0
2018-Aug-14 14:29N 38°08' E 013°22'0 0.0
2018-Aug-14 13:59N 38°08' E 013°22'0 0.0
2018-Aug-14 13:29N 38°08' E 013°22'0 0.0
2018-Aug-14 12:59N 38°08' E 013°22'0 0.0
2018-Aug-14 12:29N 38°08' E 013°22'3 7.2
2018-Aug-14 12:00N 38°06' E 013°18'3233.1 070 / 81011.010.8 32.521.7
2018-Aug-14 11:59N 38°08' E 013°22'0 0.0
2018-Aug-14 11:29N 38°08' E 013°22'0 0.0
2018-Aug-14 10:59N 38°08' E 013°22'0 0.0
2018-Aug-14 10:29N 38°08' E 013°22'0 0.0
2018-Aug-14 09:59N 38°08' E 013°22'0 0.0
2018-Aug-14 09:29N 38°08' E 013°22'0 0.0
2018-Aug-14 08:59N 38°08' E 013°22'0 0.0
2018-Aug-14 08:29N 38°08' E 013°22'0 0.0
2018-Aug-14 07:59N 38°08' E 013°22'0 0.0
2018-Aug-14 07:29N 38°08' E 013°22'0 0.0
2018-Aug-14 06:59N 38°08' E 013°22'0 0.0
2018-Aug-14 06:29N 38°08' E 013°22'0 0.0
2018-Aug-14 05:59N 38°08' E 013°22'0 0.2
2018-Aug-14 05:30N 38°08' E 013°22'2 3.1
2018-Aug-14 05:00N 38°08' E 013°24'611.3
2018-Aug-14 04:30N 38°14' E 013°25'816.5
2018-Aug-14 04:00N 38°17' E 013°16'1019.5
2018-Aug-14 03:30N 38°17' E 013°03'1019.6
2018-Aug-14 03:00N 38°17' E 012°51'1019.1
2018-Aug-14 02:30N 38°16' E 012°39'918.9
2018-Aug-14 02:00N 38°14' E 012°27'2929.0
2018-Aug-14 01:00N 38°00' E 011°54'1713.3 010 / 181016.010.8 30.421.527.2
2018-Aug-13 23:42N 37°46' E 012°06'420.9
2018-Aug-13 23:30N 37°43' E 012°10'1020.8
2018-Aug-13 23:00N 37°35' E 012°19'4113.1
2018-Aug-13 19:55N 37°05' E 012°53'819.3
2018-Aug-13 19:30N 36°59' E 012°60'1019.2
2018-Aug-13 19:00N 36°52' E 013°08'1015.8
2018-Aug-13 18:23N 36°45' E 013°16'615.0
2018-Aug-13 18:00N 36°41' E 013°21'814.6
2018-Aug-13 17:26N 36°35' E 013°28'1813.9
2018-Aug-13 16:08N 36°22' E 013°44'213.8
2018-Aug-13 15:59N 36°21' E 013°46'714.2
2018-Aug-13 15:30N 36°16' E 013°52'714.4
2018-Aug-13 15:00N 36°11' E 013°58'713.9
2018-Aug-13 14:30N 36°06' E 014°04'714.5
2018-Aug-13 14:00N 36°01' E 014°10'7 0.8
2018-Aug-13 05:12N 36°01' E 014°19'210.8
2018-Aug-13 05:00N 36°02' E 014°22'612.0
2018-Aug-13 04:31N 36°03' E 014°29'611.7
2018-Aug-13 04:00N 35°59' E 014°35'510.7
2018-Aug-13 03:30N 35°54' E 014°31'1 0.1
2018-Aug-12 12:00N 35°54' E 014°30'118 7.9 010 / 181016.010.8 30.421.527.2
2018-Aug-11 21:00N 37°42' E 015°30'1718.7 010 / 181016.010.8 26.823.328.2
2018-Aug-11 20:06N 37°58' E 015°33'325.6
2018-Aug-11 20:00N 38°00' E 015°30'422.5 020 / 221016.010.8 26.523.228.0
2018-Aug-11 19:48N 38°03' E 015°34'415.1
2018-Aug-11 19:30N 38°07' E 015°35'4 8.7
2018-Aug-11 19:00N 38°12' E 015°34'6 0.9
2018-Aug-11 12:00N 38°06' E 015°30'6 1.0 360 / 151017.010.8 30.520.7
2018-Aug-11 05:53N 38°12' E 015°33'1 1.9
2018-Aug-11 05:28N 38°12' E 015°34'3 7.1
2018-Aug-11 05:00N 38°10' E 015°37'611.9
2018-Aug-11 04:30N 38°04' E 015°35'612.0
2018-Aug-11 03:59N 37°58' E 015°37'612.0
2018-Aug-11 03:30N 37°53' E 015°40'710.7
2018-Aug-11 02:53N 37°49' E 015°46'411.5
2018-Aug-11 02:30N 37°47' E 015°52'711.5
2018-Aug-11 01:56N 37°45' E 015°60'511.7
2018-Aug-11 01:30N 37°44' E 016°06'611.7
2018-Aug-11 01:00N 37°42' E 016°13'15511.9
2018-Aug-10 12:00N 36°54' E 019°18'24712.3 010 / 121015.010.8 29.217.129.4
2018-Aug-09 16:00N 35°41' E 024°10'5496.5
2018-Aug-09 16:00N 35°36' E 024°12'4 7.8 020 / 161012.010.8 27.021.728.6
2018-Aug-09 15:30N 35°37' E 024°16'612.1
2018-Aug-09 15:00N 35°31' E 024°16'3282.9
2018-Aug-09 15:00N 35°30' E 024°12'6 0.6 340 / 171012.010.8 26.721.228.8
2018-Aug-09 04:36N 35°30' E 024°04'0 0.4
2018-Aug-09 04:30N 35°30' E 024°04'6 6.3
2018-Aug-09 03:37N 35°29' E 024°11'112.9
2018-Aug-09 03:30N 35°30' E 024°13'613.2
2018-Aug-09 03:00N 35°36' E 024°16'17315.7
2018-Aug-08 16:00N 37°12' E 021°18'1212.0 280 / 101012.010.8 28.421.229.2
2018-Aug-08 15:00N 37°24' E 021°18'66 4.1 280 / 191012.010.8 28.022.728.4
2018-Aug-07 23:00N 38°24' E 020°42'5911.8 300 / 61015.010.8 25.122.028.0
2018-Aug-07 18:00N 39°18' E 020°12'61 4.0 050 / 31012.010.8 26.123.827.9
2018-Aug-07 03:00N 40°06' E 019°24'15415.4 140 / 71014.010.8 25.323.427.0
2018-Aug-06 17:00N 42°30' E 018°12'9 8.8 330 / 51013.010.8 27.123.829.2
2018-Aug-06 16:00N 42°30' E 018°00'90 4.3 240 / 41013.010.8 27.623.428.1
2018-Aug-05 19:00N 43°12' E 016°12'   120 / 11013.010.8 26.024.828.0

Dump ship's entire track history